Time;durP1;ratioP1;P1;durP2;ratioP2;P2;SDS_P1;SDS_P2;PMS_P1;PMS_P2;Temp;Humidity;BMP_temperature;BMP_pressure;BME280_temperature;BME280_humidity;BME280_pressure;Samples;Min_cycle;Max_cycle;Signal;HPM_P1;HPM_P2
2023/12/01 00:01:01;;;;;;;134.63;65.53;;;-5.00;99.90;;;;;;10251665;28;20309;-80
2023/12/01 00:06:03;;;;;;;157.90;72.80;;;-5.40;99.90;;;;;;10241821;28;20226;-79
2023/12/01 00:11:06;;;;;;;155.27;66.77;;;-5.70;99.90;;;;;;10228706;28;20225;-79
2023/12/01 00:16:09;;;;;;;220.10;92.77;;;-5.40;99.90;;;;;;10217159;28;20772;-79
2023/12/01 00:21:12;;;;;;;222.27;93.53;;;-5.10;99.90;;;;;;10244566;28;20308;-79
2023/12/01 00:26:14;;;;;;;197.30;89.87;;;-5.30;99.90;;;;;;10248688;28;20238;-79
2023/12/01 00:31:20;;;;;;;202.13;94.80;;;-5.60;99.90;;;;;;10229615;29;20313;-80
2023/12/01 00:36:22;;;;;;;180.33;81.90;;;-5.60;99.90;;;;;;10233625;28;20262;-79
2023/12/01 00:41:25;;;;;;;215.37;89.03;;;-5.50;99.90;;;;;;10233141;28;20257;-80
2023/12/01 00:46:27;;;;;;;208.77;89.47;;;-5.20;99.90;;;;;;10249316;28;20234;-79
2023/12/01 00:51:30;;;;;;;253.50;99.63;;;-5.00;99.90;;;;;;10208528;29;20608;-79
2023/12/01 00:56:32;;;;;;;191.70;83.87;;;-5.10;99.90;;;;;;10209882;29;20246;-79
2023/12/01 01:01:35;;;;;;;195.50;85.03;;;-5.20;99.90;;;;;;10225480;28;20246;-79
2023/12/01 01:06:38;;;;;;;239.63;101.23;;;-4.90;99.90;;;;;;10238936;28;20234;-79
2023/12/01 01:11:40;;;;;;;186.33;79.00;;;-5.10;99.90;;;;;;10223710;29;20292;-79
2023/12/01 01:16:43;;;;;;;222.57;99.00;;;-5.20;99.90;;;;;;10211333;28;20704;-79
2023/12/01 01:21:46;;;;;;;199.40;89.53;;;-5.40;99.90;;;;;;10247030;28;20277;-79
2023/12/01 01:26:48;;;;;;;174.40;80.17;;;-5.50;99.90;;;;;;10247575;28;20305;-79
2023/12/01 01:31:51;;;;;;;218.80;96.10;;;-5.50;99.90;;;;;;10244464;28;20770;-80
2023/12/01 01:36:53;;;;;;;233.63;97.03;;;-5.40;99.90;;;;;;10230375;28;20234;-79
2023/12/01 01:41:56;;;;;;;219.47;92.73;;;-5.40;99.90;;;;;;10231151;28;20250;-79
2023/12/01 01:47:01;;;;;;;230.17;100.30;;;-5.50;99.90;;;;;;10214114;29;20235;-79
2023/12/01 01:52:04;;;;;;;170.33;79.80;;;-5.50;99.90;;;;;;10212734;29;20319;-79
2023/12/01 01:57:08;;;;;;;188.23;94.30;;;-5.50;99.90;;;;;;10221439;28;20297;-79
2023/12/01 02:02:11;;;;;;;182.57;90.53;;;-5.70;99.90;;;;;;10210010;29;20732;-79
2023/12/01 02:07:26;;;;;;;197.97;92.97;;;-5.70;99.90;;;;;;10208115;28;20239;-80
2023/12/01 02:12:29;;;;;;;199.73;92.07;;;-6.10;99.90;;;;;;10221589;28;20246;-80
2023/12/01 02:17:31;;;;;;;186.13;88.80;;;-6.20;99.90;;;;;;10226558;28;20234;-79
2023/12/01 02:22:34;;;;;;;203.70;94.70;;;-6.40;99.90;;;;;;10234751;28;20258;-80
2023/12/01 02:27:37;;;;;;;226.03;98.73;;;-6.10;99.90;;;;;;10241205;29;20755;-79
2023/12/01 02:32:39;;;;;;;200.80;92.33;;;-6.30;99.90;;;;;;10231734;28;20239;-79
2023/12/01 02:37:42;;;;;;;166.60;78.17;;;-6.30;99.90;;;;;;10229713;28;20293;-79
2023/12/01 02:42:49;;;;;;;269.63;107.87;;;-6.10;99.90;;;;;;10218055;29;20246;-79
2023/12/01 02:47:51;;;;;;;257.50;110.47;;;-6.00;99.90;;;;;;10244586;28;20284;-79
2023/12/01 02:52:54;;;;;;;249.10;105.50;;;-6.40;99.90;;;;;;10243498;28;20652;-78
2023/12/01 02:57:57;;;;;;;214.70;96.40;;;-6.20;99.90;;;;;;10214857;28;20650;-79
2023/12/01 03:02:59;;;;;;;181.80;81.73;;;-6.60;99.90;;;;;;10218128;29;20250;-80
2023/12/01 03:08:02;;;;;;;241.20;102.27;;;-6.10;99.90;;;;;;10210088;29;20230;-80
2023/12/01 03:13:04;;;;;;;230.47;97.97;;;-6.20;99.90;;;;;;10229464;28;20280;-79
2023/12/01 03:18:07;;;;;;;241.07;100.13;;;-6.30;99.90;;;;;;10227286;28;20243;-80
2023/12/01 03:23:11;;;;;;;226.30;97.70;;;-6.30;99.90;;;;;;10216027;28;20599;-79
2023/12/01 03:28:14;;;;;;;213.67;93.43;;;-5.80;99.90;;;;;;10206521;29;20289;-80
2023/12/01 03:33:17;;;;;;;175.43;82.73;;;-5.60;99.90;;;;;;10221241;29;20243;-79
2023/12/01 03:38:20;;;;;;;213.03;94.10;;;-5.50;99.90;;;;;;10216463;29;20285;-80
2023/12/01 03:43:22;;;;;;;189.33;89.47;;;-5.60;99.90;;;;;;10235633;28;20254;-80
2023/12/01 03:48:24;;;;;;;184.47;84.77;;;-5.70;99.90;;;;;;10244070;28;20304;-79
2023/12/01 03:53:30;;;;;;;154.80;69.63;;;-5.80;99.90;;;;;;10244171;28;20261;-79
2023/12/01 03:58:33;;;;;;;223.60;100.83;;;-5.60;99.90;;;;;;10239459;28;20261;-79
2023/12/01 04:03:37;;;;;;;201.77;95.07;;;-5.60;99.90;;;;;;10214151;29;20780;-79
2023/12/01 04:08:40;;;;;;;212.30;98.90;;;-6.20;99.90;;;;;;10232137;28;20260;-79
2023/12/01 04:13:43;;;;;;;220.70;100.53;;;-6.40;99.90;;;;;;10248753;28;20230;-79
2023/12/01 04:18:45;;;;;;;208.20;96.73;;;-6.00;99.90;;;;;;10217759;29;20242;-80
2023/12/01 04:23:48;;;;;;;194.20;88.23;;;-6.30;99.90;;;;;;10209757;29;20274;-79
2023/12/01 04:28:52;;;;;;;197.03;94.40;;;-6.60;99.90;;;;;;10216259;28;20226;-79
2023/12/01 04:33:55;;;;;;;220.10;99.60;;;-6.30;99.90;;;;;;10227497;29;20640;-79
2023/12/01 04:38:57;;;;;;;214.80;98.33;;;-6.60;99.90;;;;;;10210834;29;20319;-79
2023/12/01 04:44:00;;;;;;;223.73;102.83;;;-6.90;99.90;;;;;;10227008;28;20317;-80
2023/12/01 04:49:02;;;;;;;211.57;95.77;;;-6.90;99.90;;;;;;10228993;29;20297;-80
2023/12/01 04:54:06;;;;;;;162.27;72.97;;;-7.30;99.90;;;;;;10234286;29;20266;-80
2023/12/01 04:59:09;;;;;;;222.87;100.47;;;-6.70;99.90;;;;;;10248842;28;20763;-79
2023/12/01 05:04:12;;;;;;;213.33;93.00;;;-6.80;99.90;;;;;;10233360;28;20262;-80
2023/12/01 05:09:17;;;;;;;206.67;93.23;;;-6.80;99.90;;;;;;10223414;28;20297;-79
2023/12/01 05:14:20;;;;;;;186.67;86.20;;;-7.10;99.90;;;;;;10245024;28;20763;-80
2023/12/01 05:19:22;;;;;;;233.70;107.23;;;-6.40;99.90;;;;;;10216427;28;20680;-80
2023/12/01 05:24:25;;;;;;;236.27;103.37;;;-6.50;99.90;;;;;;10227175;28;20720;-79
2023/12/01 05:29:28;;;;;;;219.13;99.13;;;-6.80;99.90;;;;;;10234156;28;20227;-80
2023/12/01 05:34:31;;;;;;;198.60;93.17;;;-6.80;99.90;;;;;;10240593;28;20320;-80
2023/12/01 05:39:33;;;;;;;228.70;101.27;;;-6.80;99.90;;;;;;10229579;28;20285;-79
2023/12/01 05:44:36;;;;;;;221.30;90.70;;;-6.60;99.90;;;;;;10216797;28;20320;-80
2023/12/01 05:49:38;;;;;;;216.17;96.97;;;-6.40;99.90;;;;;;10225348;28;20238;-80
2023/12/01 05:54:41;;;;;;;194.83;86.47;;;-6.40;99.90;;;;;;10221598;28;20262;-80
2023/12/01 05:59:44;;;;;;;208.60;97.03;;;-6.40;99.90;;;;;;10222302;28;20233;-80
2023/12/01 06:04:46;;;;;;;215.77;95.03;;;-7.00;99.90;;;;;;10228177;28;20735;-80
2023/12/01 06:09:49;;;;;;;175.27;78.77;;;-6.80;99.90;;;;;;10219921;29;20223;-79
2023/12/01 06:14:51;;;;;;;189.87;82.43;;;-6.90;99.90;;;;;;10216085;29;20278;-79
2023/12/01 06:19:54;;;;;;;214.83;93.23;;;-6.60;99.90;;;;;;10243689;28;20269;-79
2023/12/01 06:24:56;;;;;;;215.17;98.53;;;-6.60;99.90;;;;;;10215936;28;20881;-79
2023/12/01 06:29:59;;;;;;;209.97;95.73;;;-6.90;99.90;;;;;;10226247;28;20699;-79
2023/12/01 06:35:02;;;;;;;154.40;72.23;;;-7.10;99.90;;;;;;10211172;28;20699;-78
2023/12/01 06:40:11;;;;;;;148.97;69.03;;;-7.00;99.90;;;;;;10211691;29;20238;-79
2023/12/01 06:45:16;;;;;;;124.13;54.50;;;-6.60;99.90;;;;;;10206012;29;20725;-79
2023/12/01 06:50:20;;;;;;;164.00;73.40;;;-6.40;99.90;;;;;;10242763;28;20230;-78
2023/12/01 06:55:22;;;;;;;160.70;79.70;;;-2.60;99.90;;;;;;10206993;29;20234;-79
2023/12/01 07:05:32;;;;;;;194.60;83.50;;;-5.10;99.90;;;;;;10266136;28;20261;-78
2023/12/01 07:10:35;;;;;;;253.13;108.53;;;-5.60;99.90;;;;;;10239670;29;20230;-78
2023/12/01 07:15:37;;;;;;;266.13;110.23;;;-3.40;99.90;;;;;;10250310;28;20241;-78
2023/12/01 07:20:40;;;;;;;226.70;104.13;;;-4.80;99.90;;;;;;10228582;28;20293;-78
2023/12/01 07:25:47;;;;;;;196.90;92.70;;;-5.20;99.90;;;;;;10234383;29;20254;-78
2023/12/01 07:30:49;;;;;;;231.63;102.40;;;-5.50;99.90;;;;;;10213761;29;20270;-78
2023/12/01 07:35:52;;;;;;;205.63;99.30;;;-5.60;99.90;;;;;;10221265;28;20271;-79
2023/12/01 07:40:54;;;;;;;198.43;95.37;;;-5.80;99.90;;;;;;10222379;29;20683;-78
2023/12/01 07:45:57;;;;;;;198.37;96.63;;;-5.70;99.90;;;;;;10243052;28;20316;-78
2023/12/01 07:50:59;;;;;;;231.57;111.60;;;-6.00;99.90;;;;;;10246653;29;20266;-78
2023/12/01 07:56:02;;;;;;;236.23;105.77;;;-6.00;99.90;;;;;;10244779;28;20286;-79
2023/12/01 08:01:05;;;;;;;237.27;115.90;;;-6.10;99.90;;;;;;10224106;28;20253;-78
2023/12/01 08:06:08;;;;;;;210.83;97.30;;;-6.50;99.90;;;;;;10229051;28;20324;-78
2023/12/01 08:11:10;;;;;;;251.77;111.43;;;-6.20;99.90;;;;;;10244027;29;20233;-79
2023/12/01 08:16:14;;;;;;;223.33;106.90;;;-5.50;99.90;;;;;;10230525;28;20234;-78
2023/12/01 08:21:16;;;;;;;201.83;95.80;;;-5.70;99.90;;;;;;10212250;29;20306;-79
2023/12/01 08:26:22;;;;;;;234.87;110.33;;;-5.20;99.90;;;;;;10230873;28;20257;-79
2023/12/01 08:31:25;;;;;;;193.00;87.00;;;-5.00;99.90;;;;;;10247584;28;20778;-78
2023/12/01 08:36:27;;;;;;;298.30;145.67;;;-4.40;99.90;;;;;;10231401;28;20292;-78
2023/12/01 08:41:34;;;;;;;267.63;130.50;;;-3.70;99.90;;;;;;10248804;28;20612;-79
2023/12/01 08:46:37;;;;;;;242.77;122.10;;;-3.60;99.90;;;;;;10234822;28;20265;-79
2023/12/01 08:51:39;;;;;;;319.87;161.47;;;-3.70;99.90;;;;;;10229687;28;20293;-79
2023/12/01 08:56:42;;;;;;;249.50;124.00;;;-3.50;99.90;;;;;;10240066;28;20666;-78
2023/12/01 09:01:44;;;;;;;232.10;108.97;;;-3.30;99.90;;;;;;10207187;29;20242;-78
2023/12/01 09:06:47;;;;;;;253.07;122.70;;;-3.00;99.90;;;;;;10224471;28;20328;-78
2023/12/01 09:11:50;;;;;;;267.40;135.50;;;-3.60;99.90;;;;;;10247713;28;20238;-78
2023/12/01 09:16:52;;;;;;;207.27;104.50;;;-4.10;99.90;;;;;;10231277;28;20292;-78
2023/12/01 09:21:56;;;;;;;278.00;127.57;;;-4.10;99.90;;;;;;10234802;28;20766;-79
2023/12/01 09:26:59;;;;;;;256.97;126.80;;;-4.20;99.90;;;;;;10239348;28;20223;-78
2023/12/01 09:32:02;;;;;;;295.73;143.03;;;-4.00;99.90;;;;;;10215350;29;20271;-78
2023/12/01 09:37:05;;;;;;;235.20;96.10;;;-3.90;99.90;;;;;;10226718;28;20281;-79
2023/12/01 09:42:11;;;;;;;233.33;100.60;;;-2.20;99.90;;;;;;10210983;29;20242;-79
2023/12/01 09:47:17;;;;;;;315.23;154.87;;;0.20;99.90;;;;;;10225362;29;20238;-79
2023/12/01 09:52:19;;;;;;;315.17;148.47;;;0.30;99.90;;;;;;10241358;28;20273;-80
2023/12/01 09:57:22;;;;;;;205.33;102.87;;;-0.70;99.90;;;;;;10224515;28;20229;-80
2023/12/01 10:02:24;;;;;;;188.40;97.37;;;0.80;99.90;;;;;;10226235;28;20689;-81
2023/12/01 10:07:27;;;;;;;195.63;106.93;;;0.80;99.90;;;;;;10244809;28;20283;-80
2023/12/01 10:12:30;;;;;;;196.10;100.60;;;-0.20;99.90;;;;;;10244295;28;20233;-80
2023/12/01 10:17:32;;;;;;;198.30;97.93;;;-1.00;99.90;;;;;;10247064;28;20241;-80
2023/12/01 10:22:35;;;;;;;181.47;96.03;;;-1.20;99.90;;;;;;10231925;28;20281;-80
2023/12/01 10:27:38;;;;;;;170.13;88.77;;;-1.40;99.90;;;;;;10230951;28;20289;-80
2023/12/01 10:32:41;;;;;;;175.00;87.50;;;-1.70;99.90;;;;;;10238394;28;20294;-80
2023/12/01 10:37:46;;;;;;;146.53;80.33;;;-1.10;99.90;;;;;;10244937;28;20235;-79
2023/12/01 10:42:52;;;;;;;163.07;83.97;;;-0.80;99.90;;;;;;10215395;29;20258;-80
2023/12/01 10:47:58;;;;;;;145.53;72.47;;;-0.60;99.90;;;;;;10216948;29;20237;-80
2023/12/01 10:53:02;;;;;;;159.77;80.23;;;1.30;99.90;;;;;;10217083;29;20326;-80
2023/12/01 10:58:06;;;;;;;144.70;74.43;;;1.80;99.90;;;;;;10252818;28;20269;-81
2023/12/01 11:03:10;;;;;;;143.57;76.47;;;;;;;;;;10253178;28;20293;-80
2023/12/01 11:08:49;;;;;;;136.07;70.57;;;1.90;99.90;;;;;;10241116;28;20634;-80
2023/12/01 11:14:17;;;;;;;150.40;80.10;;;2.30;99.90;;;;;;10220850;28;20618;-80
2023/12/01 11:19:23;;;;;;;117.07;66.13;;;2.50;99.90;;;;;;10239821;28;20644;-80
2023/12/01 11:24:35;;;;;;;125.77;65.20;;;3.00;99.90;;;;;;10225753;28;20259;-79
2023/12/01 11:29:39;;;;;;;111.37;59.07;;;2.70;99.90;;;;;;10223639;28;20195;-80
2023/12/01 11:35:09;;;;;;;99.80;54.23;;;3.00;99.90;;;;;;10214898;29;20340;-80
2023/12/01 11:40:22;;;;;;;101.37;55.63;;;3.00;99.90;;;;;;10221627;28;20641;-80
2023/12/01 11:45:41;;;;;;;87.63;47.63;;;2.90;99.90;;;;;;10253099;28;20265;-80
2023/12/01 11:50:44;;;;;;;95.63;49.77;;;2.60;99.90;;;;;;10220359;29;20259;-81
2023/12/01 11:55:50;;;;;;;74.00;41.83;;;2.90;99.90;;;;;;10214245;29;20248;-80
2023/12/01 12:00:53;;;;;;;63.20;35.13;;;3.70;99.90;;;;;;10217988;29;20290;-80
2023/12/01 12:05:55;;;;;;;63.63;34.37;;;3.70;99.90;;;;;;10234457;28;20714;-80
2023/12/01 12:10:59;;;;;;;55.57;31.20;;;3.60;99.90;;;;;;10246184;28;20252;-81
2023/12/01 12:16:01;;;;;;;71.00;36.50;;;3.30;99.90;;;;;;10218116;28;20271;-80
2023/12/01 12:21:05;;;;;;;71.77;39.03;;;3.50;99.90;;;;;;10266735;28;20206;-79
2023/12/01 12:26:14;;;;;;;47.57;27.70;;;3.90;99.90;;;;;;10271040;28;20210;-80
2023/12/01 12:31:18;;;;;;;84.57;44.97;;;3.40;99.90;;;;;;10287206;28;20222;-79
2023/12/01 12:36:23;;;;;;;60.77;33.43;;;3.50;99.90;;;;;;10271650;28;20187;-80
2023/12/01 12:41:30;;;;;;;43.03;24.63;;;4.20;99.90;;;;;;10278100;28;20184;-79
2023/12/01 12:46:34;;;;;;;39.10;23.43;;;4.20;99.90;;;;;;10287636;28;20249;-81
2023/12/01 12:51:38;;;;;;;47.63;27.20;;;3.90;99.90;;;;;;10264814;28;20257;-80
2023/12/01 12:56:42;;;;;;;37.23;21.53;;;3.70;99.90;;;;;;10302752;28;20180;-79
2023/12/01 13:01:44;;;;;;;39.60;23.50;;;3.30;99.90;;;;;;10299795;28;20174;-80
2023/12/01 13:06:47;;;;;;;34.57;21.73;;;3.30;99.90;;;;;;10291232;28;20202;-80
2023/12/01 13:11:51;;;;;;;37.43;22.13;;;3.20;99.90;;;;;;10303052;28;20188;-79
2023/12/01 13:16:54;;;;;;;37.83;22.20;;;3.30;99.90;;;;;;10281185;28;20190;-80
2023/12/01 13:21:58;;;;;;;47.10;27.63;;;3.60;99.90;;;;;;10275035;28;20194;-80
2023/12/01 13:27:00;;;;;;;37.30;22.23;;;3.70;99.90;;;;;;10262739;28;20211;-80
2023/12/01 13:32:04;;;;;;;50.30;27.87;;;3.60;99.90;;;;;;10274456;28;20232;-81
2023/12/01 13:37:07;;;;;;;46.40;28.07;;;3.80;99.90;;;;;;10279048;28;20208;-81
2023/12/01 13:42:09;;;;;;;48.23;28.27;;;3.70;99.90;;;;;;10269879;28;20183;-81
2023/12/01 13:47:11;;;;;;;57.17;32.40;;;3.70;99.90;;;;;;10285589;28;20219;-80
2023/12/01 13:52:14;;;;;;;56.70;28.67;;;4.00;99.90;;;;;;10302028;28;20235;-80
2023/12/01 13:57:16;;;;;;;32.53;21.07;;;3.90;99.90;;;;;;10296019;28;20192;-80
2023/12/01 14:02:19;;;;;;;35.13;22.50;;;3.20;99.90;;;;;;10275562;28;20226;-80
2023/12/01 14:07:22;;;;;;;37.57;22.83;;;2.30;99.90;;;;;;10260303;29;20228;-80
2023/12/01 14:12:25;;;;;;;41.10;23.50;;;2.30;99.90;;;;;;10237238;28;20212;-80
2023/12/01 14:17:27;;;;;;;38.03;21.97;;;2.00;99.90;;;;;;10269681;28;20263;-79
2023/12/01 14:22:30;;;;;;;159.97;89.63;;;1.50;99.90;;;;;;10242655;28;20308;-80
2023/12/01 14:27:32;;;;;;;188.17;100.73;;;0.50;99.90;;;;;;10262625;28;20716;-80
2023/12/01 14:32:36;;;;;;;171.30;98.13;;;-0.50;99.90;;;;;;10253274;28;20207;-81
2023/12/01 14:37:39;;;;;;;180.37;97.80;;;-0.90;99.90;;;;;;10225096;29;20216;-80
2023/12/01 14:42:42;;;;;;;163.57;90.77;;;-0.90;99.90;;;;;;10239729;29;20238;-80
2023/12/01 14:47:44;;;;;;;219.83;119.53;;;-1.20;99.90;;;;;;10233452;29;20265;-79
2023/12/01 14:52:47;;;;;;;245.07;152.93;;;-1.60;99.90;;;;;;10261585;28;20234;-80
2023/12/01 14:57:50;;;;;;;276.37;176.23;;;-2.50;99.90;;;;;;10250683;28;20194;-80
2023/12/01 15:02:52;;;;;;;296.80;179.70;;;;;;;;;;10213396;28;20207;-80
2023/12/01 15:07:55;;;;;;;303.93;201.17;;;-4.40;99.90;;;;;;10278294;28;20251;-80
2023/12/01 15:12:58;;;;;;;330.43;213.40;;;-4.50;99.90;;;;;;10232410;28;20207;-79
2023/12/01 15:18:00;;;;;;;333.47;215.57;;;-5.00;99.90;;;;;;10246356;28;20266;-80
2023/12/01 15:23:03;;;;;;;348.63;222.27;;;-5.30;99.90;;;;;;10246505;28;20210;-79
2023/12/01 15:28:05;;;;;;;356.13;224.93;;;-5.30;99.90;;;;;;10254939;28;20234;-79
2023/12/01 15:33:08;;;;;;;371.47;214.37;;;-5.40;99.90;;;;;;10248626;28;20270;-79
2023/12/01 15:38:11;;;;;;;388.67;226.57;;;-5.70;99.90;;;;;;10228228;28;20257;-80
2023/12/01 15:43:13;;;;;;;389.70;230.13;;;-5.60;99.90;;;;;;10217006;29;20230;-79
2023/12/01 15:48:15;;;;;;;419.67;263.07;;;-5.50;99.90;;;;;;10216072;29;20238;-79
2023/12/01 15:53:18;;;;;;;395.97;230.33;;;-5.80;99.90;;;;;;10248204;28;20281;-79
2023/12/01 15:58:21;;;;;;;416.83;238.13;;;-6.00;99.90;;;;;;10248015;28;20211;-80
2023/12/01 16:03:23;;;;;;;478.00;265.57;;;-6.20;99.90;;;;;;10227243;29;20202;-79
2023/12/01 16:08:26;;;;;;;426.47;253.10;;;-6.00;99.90;;;;;;10225236;28;20254;-80
2023/12/01 16:13:28;;;;;;;460.67;271.87;;;-6.30;99.90;;;;;;10247120;28;20199;-80
2023/12/01 16:18:31;;;;;;;459.50;278.83;;;-6.00;99.90;;;;;;10249761;28;20304;-80
2023/12/01 16:23:34;;;;;;;88.87;43.67;;;-6.00;99.90;;;;;;10223425;29;20232;-80
2023/12/01 16:28:37;;;;;;;132.43;62.67;;;-6.20;99.90;;;;;;10220556;28;20211;-81
2023/12/01 16:33:40;;;;;;;149.33;71.47;;;-5.70;99.90;;;;;;10236850;29;20243;-80
2023/12/01 16:38:42;;;;;;;316.90;160.17;;;-5.30;99.90;;;;;;10251845;28;20213;-81
2023/12/01 16:43:45;;;;;;;274.70;129.93;;;-4.40;99.90;;;;;;10252875;28;20578;-79
2023/12/01 16:48:47;;;;;;;360.40;170.37;;;-4.50;99.90;;;;;;10228150;28;20227;-78
2023/12/01 16:53:50;;;;;;;281.40;138.70;;;-4.10;99.90;;;;;;10234345;28;20321;-78
2023/12/01 16:58:53;;;;;;;222.33;113.83;;;-4.40;99.90;;;;;;10243644;28;20238;-78
2023/12/01 17:03:55;;;;;;;322.40;173.67;;;-1.80;99.90;;;;;;10247056;28;20281;-77
2023/12/01 17:08:58;;;;;;;293.30;156.03;;;-2.30;99.90;;;;;;10247142;28;20309;-78
2023/12/01 17:14:02;;;;;;;314.57;166.17;;;-2.60;99.90;;;;;;10247419;28;20273;-78
2023/12/01 17:19:04;;;;;;;279.13;147.30;;;-3.40;99.90;;;;;;10245486;28;20296;-78
2023/12/01 17:24:07;;;;;;;299.33;162.33;;;-3.30;99.90;;;;;;10244719;28;20257;-78
2023/12/01 17:29:09;;;;;;;232.43;124.93;;;-3.40;99.90;;;;;;10247155;28;20261;-78
2023/12/01 17:34:21;;;;;;;305.63;158.70;;;-3.30;99.90;;;;;;10239827;28;20274;-80
2023/12/01 17:39:23;;;;;;;269.63;140.13;;;-3.20;99.90;;;;;;10231084;28;20207;-81
2023/12/01 17:44:26;;;;;;;308.27;164.13;;;-2.40;99.90;;;;;;10218639;28;20311;-80
2023/12/01 17:49:28;;;;;;;277.27;150.38;;;-2.70;99.90;;;;;;9524347;28;10000617;-81
2023/12/01 17:54:31;;;;;;;280.83;147.53;;;-3.50;99.90;;;;;;10160290;29;1396747;-81
2023/12/01 17:59:33;;;;;;;272.03;149.43;;;-2.30;99.90;;;;;;10235764;28;20262;-81
2023/12/01 18:04:36;;;;;;;260.43;138.57;;;-3.40;99.90;;;;;;10220487;29;20250;-81
2023/12/01 18:09:38;;;;;;;291.87;148.23;;;-3.50;99.90;;;;;;10208024;29;20223;-82
2023/12/01 18:14:41;;;;;;;261.77;134.73;;;-3.50;99.90;;;;;;10234208;28;20269;-82
2023/12/01 18:19:44;;;;;;;266.17;146.87;;;-3.40;99.90;;;;;;10231864;28;20250;-82
2023/12/01 18:24:46;;;;;;;285.83;148.67;;;-3.60;99.90;;;;;;10220154;29;20286;-82
2023/12/01 18:29:51;;;;;;;286.33;150.80;;;-3.60;99.90;;;;;;10209322;29;20289;-82
2023/12/01 18:34:54;;;;;;;289.60;155.87;;;-3.60;99.90;;;;;;10242215;28;20294;-82
2023/12/01 18:39:56;;;;;;;277.90;154.80;;;-3.60;99.90;;;;;;10240567;29;20225;-82
2023/12/01 18:44:59;;;;;;;263.67;141.70;;;-3.80;99.90;;;;;;10234443;28;20270;-82
2023/12/01 18:50:05;;;;;;;272.20;143.80;;;-3.70;99.90;;;;;;10205581;28;20275;-82
2023/12/01 18:55:08;;;;;;;289.23;154.10;;;-2.80;99.90;;;;;;10257390;28;20289;-82
2023/12/01 19:00:12;;;;;;;301.10;159.47;;;-3.10;99.90;;;;;;10246612;28;20707;-82
2023/12/01 19:05:15;;;;;;;286.17;149.73;;;-3.20;99.90;;;;;;10225210;28;20262;-82
2023/12/01 19:10:18;;;;;;;308.77;167.80;;;-3.30;99.90;;;;;;10211896;28;20230;-83
2023/12/01 19:15:21;;;;;;;332.80;175.77;;;-3.20;99.90;;;;;;10210776;29;20238;-82
2023/12/01 19:20:24;;;;;;;328.13;173.70;;;-3.20;99.90;;;;;;10211350;29;20250;-82
2023/12/01 19:25:26;;;;;;;347.33;184.73;;;-3.30;99.90;;;;;;10216104;29;20731;-82
2023/12/01 19:30:29;;;;;;;307.60;159.03;;;-3.50;99.90;;;;;;10232391;28;20292;-82
2023/12/01 19:35:31;;;;;;;308.07;155.47;;;-3.40;99.90;;;;;;10213352;29;20246;-82
2023/12/01 19:40:34;;;;;;;422.33;213.07;;;-3.30;99.90;;;;;;10222520;29;20551;-82
2023/12/01 19:45:36;;;;;;;370.83;198.53;;;-3.10;99.90;;;;;;10210541;29;20251;-82
2023/12/01 19:50:39;;;;;;;364.87;191.93;;;-3.20;99.90;;;;;;10233593;28;20639;-82
2023/12/01 19:55:42;;;;;;;368.13;192.10;;;-2.90;99.90;;;;;;10247488;28;20293;-82
2023/12/01 20:00:45;;;;;;;338.70;181.67;;;-3.20;99.90;;;;;;10228592;28;20231;-82
2023/12/01 20:05:47;;;;;;;366.40;198.60;;;-3.40;99.90;;;;;;10225360;28;20241;-82
2023/12/01 20:10:50;;;;;;;387.90;216.33;;;-3.50;99.90;;;;;;10208348;29;20278;-82
2023/12/01 20:15:52;;;;;;;384.53;208.23;;;-3.50;99.90;;;;;;10214512;28;20294;-82
2023/12/01 20:20:55;;;;;;;287.00;149.63;;;-3.60;99.90;;;;;;10215321;28;20301;-81
2023/12/01 20:25:58;;;;;;;343.37;180.60;;;-3.20;99.90;;;;;;10229693;28;20750;-82
2023/12/01 20:31:05;;;;;;;318.23;172.70;;;-3.30;99.90;;;;;;10208068;29;20238;-82
2023/12/01 20:36:08;;;;;;;295.07;155.10;;;-3.30;99.90;;;;;;10215919;29;20242;-82
2023/12/01 20:41:10;;;;;;;307.23;169.23;;;-3.10;99.90;;;;;;10207286;29;20301;-82
2023/12/01 20:46:14;;;;;;;180.37;99.23;;;-3.40;99.90;;;;;;10214215;28;20278;-82
2023/12/01 20:51:17;;;;;;;282.80;153.67;;;-3.00;99.90;;;;;;10240388;28;20266;-82
2023/12/01 20:56:19;;;;;;;257.73;137.23;;;-2.50;99.90;;;;;;10240479;28;20262;-82
2023/12/01 21:01:22;;;;;;;230.97;113.03;;;-2.90;99.90;;;;;;10218118;28;20268;-79
2023/12/01 21:06:24;;;;;;;272.57;142.43;;;-1.00;99.90;;;;;;10209590;29;20804;-80
2023/12/01 21:11:27;;;;;;;259.23;139.00;;;-1.60;99.90;;;;;;10209409;29;20262;-80
2023/12/01 21:16:30;;;;;;;239.20;129.37;;;-2.30;99.90;;;;;;10231278;28;20237;-80
2023/12/01 21:21:33;;;;;;;228.07;120.77;;;-2.60;99.90;;;;;;10237203;28;20226;-80
2023/12/01 21:26:35;;;;;;;243.40;130.47;;;-2.10;99.90;;;;;;10217733;28;20273;-80
2023/12/01 21:31:38;;;;;;;245.57;128.67;;;-2.60;99.90;;;;;;10223765;28;20293;-78
2023/12/01 21:36:43;;;;;;;256.37;133.67;;;-3.10;99.90;;;;;;10228920;29;20242;-80
2023/12/01 21:41:48;;;;;;;235.23;122.57;;;-3.60;99.90;;;;;;10218125;28;20739;-81
2023/12/01 21:46:50;;;;;;;238.13;127.67;;;-3.60;99.90;;;;;;10221992;28;20245;-80
2023/12/01 21:51:53;;;;;;;232.67;117.70;;;-3.90;99.90;;;;;;10237839;28;20258;-80
2023/12/01 21:56:55;;;;;;;234.83;125.37;;;-4.00;99.90;;;;;;10222630;28;20230;-80
2023/12/01 22:01:58;;;;;;;229.17;118.63;;;-4.00;99.90;;;;;;10215857;28;20239;-81
2023/12/01 22:07:00;;;;;;;213.67;116.30;;;-4.20;99.90;;;;;;10244061;28;20309;-80
2023/12/01 22:12:03;;;;;;;219.13;116.27;;;-4.10;99.90;;;;;;10216192;28;20242;-80
2023/12/01 22:17:08;;;;;;;232.30;117.87;;;-4.00;99.90;;;;;;10212033;28;20325;-80
2023/12/01 22:22:11;;;;;;;224.60;110.77;;;-4.10;99.90;;;;;;10236821;28;20238;-79
2023/12/01 22:27:21;;;;;;;234.87;120.80;;;-4.00;99.90;;;;;;10251930;28;20892;-79
2023/12/01 22:32:24;;;;;;;230.30;116.60;;;-4.00;99.90;;;;;;10251352;28;20693;-79
2023/12/01 22:37:26;;;;;;;223.33;115.07;;;-3.90;99.90;;;;;;10256101;28;20738;-79
2023/12/01 22:42:29;;;;;;;216.57;113.70;;;-4.00;99.90;;;;;;10263585;28;20225;-79
2023/12/01 22:47:31;;;;;;;229.47;118.83;;;-4.10;99.90;;;;;;10251204;28;20320;-80
2023/12/01 22:52:34;;;;;;;168.70;89.50;;;-4.20;99.90;;;;;;10245671;28;20254;-80
2023/12/01 22:57:36;;;;;;;212.53;109.13;;;-3.80;99.90;;;;;;10232903;28;21405;-80
2023/12/01 23:02:39;;;;;;;156.70;81.77;;;-3.80;99.90;;;;;;10241750;28;20237;-80
2023/12/01 23:07:42;;;;;;;188.47;96.00;;;-3.70;99.90;;;;;;10206262;29;20259;-81
2023/12/01 23:12:45;;;;;;;202.70;105.17;;;-3.40;99.90;;;;;;10206608;29;20681;-80
2023/12/01 23:17:47;;;;;;;211.17;112.10;;;-3.80;99.90;;;;;;10229083;28;20241;-80
2023/12/01 23:23:01;;;;;;;217.67;113.07;;;-3.90;99.90;;;;;;10236173;28;20231;-80
2023/12/01 23:28:03;;;;;;;220.23;114.40;;;-4.10;99.90;;;;;;10231714;28;20286;-81
2023/12/01 23:33:06;;;;;;;217.73;112.57;;;-4.00;99.90;;;;;;10206207;29;20243;-81
2023/12/01 23:38:08;;;;;;;173.27;96.13;;;-4.10;99.90;;;;;;10241534;28;20672;-80
2023/12/01 23:43:11;;;;;;;208.17;107.23;;;-4.10;99.90;;;;;;10219690;28;20222;-80
2023/12/01 23:48:14;;;;;;;223.50;113.47;;;-3.80;99.90;;;;;;10216167;28;20251;-81
2023/12/01 23:53:16;;;;;;;217.17;108.50;;;-3.90;99.90;;;;;;10212306;29;20318;-81
2023/12/01 23:58:19;;;;;;;199.50;102.17;;;-4.10;99.90;;;;;;10239374;28;20269;-80
